Shiloh, North Carolina
Current Conditions -  °F | °C
As of 12:54 PM on Saturday 25 Oct 2014 (Local Time) from KECG Reporting Station
Clear Clear  
Wind Chill: 70°   Ceiling: Unl
Heat Index: 70°   Visibility: 10mi
Dew Point: 45°   Wind: 3mph
Humidity: 41%   Direction: 30°NNE
Pressure: 29.95"   Gusts: NA
Location:  36.27°N, 76.08°W
Report Text: KECG 251654Z 03003KT 10SM CLR 21/07 A2995 RMK AO2 SLP140 T02110072
Loading
Personal Weather Stations






























Interactive Weather Map
Tropical Storm Tracking
New forecast layout! Learn more

10-Day Weather Forecast

Advertisements
Track Severe Weather on mobile